Time;durP1;ratioP1;P1;durP2;ratioP2;P2;SDS_P1;SDS_P2;PMS_P1;PMS_P2;Temp;Humidity;BMP_temperature;BMP_pressure;BME280_temperature;BME280_humidity;BME280_pressure;Samples;Min_cycle;Max_cycle;Signal;HPM_P1;HPM_P2
2023/09/24 00:02:28;;;;;;;;;;;11.90;84.70;;;;;;5060448;28;20045;-71
2023/09/24 00:05:01;;;;;;;;;;;11.90;84.90;;;;;;5058714;28;19933;-70
2023/09/24 00:07:33;;;;;;;;;;;12.00;84.80;;;;;;5057914;28;20375;-70
2023/09/24 00:10:07;;;;;;;;;;;11.90;85.00;;;;;;5061615;28;20445;-70
2023/09/24 00:12:41;;;;;;;;;;;12.00;85.00;;;;;;5041630;28;20291;-71
2023/09/24 00:15:15;;;;;;;;;;;11.90;85.10;;;;;;5059888;28;19948;-70
2023/09/24 00:17:48;;;;;;;;;;;11.90;85.10;;;;;;5058896;28;20386;-71
2023/09/24 00:20:22;;;;;;;;;;;12.00;84.90;;;;;;5060884;28;19964;-70
2023/09/24 00:22:54;;;;;;;;;;;12.00;85.10;;;;;;5060516;28;19968;-71
2023/09/24 00:25:28;;;;;;;;;;;12.00;85.20;;;;;;5060951;28;20052;-70
2023/09/24 00:27:55;;;;;;;;;;;11.90;85.20;;;;;;5061406;28;19935;-70
2023/09/24 00:30:31;;;;;;;;;;;11.90;85.30;;;;;;5046591;28;19928;-70
2023/09/24 00:33:05;;;;;;;;;;;11.80;85.60;;;;;;5059419;28;20264;-70
2023/09/24 00:35:38;;;;;;;;;;;11.90;85.60;;;;;;5060308;28;19946;-71
2023/09/24 00:38:25;;;;;;;;;;;11.80;85.70;;;;;;5058498;28;20202;-71
2023/09/24 00:41:05;;;;;;;;;;;11.90;85.70;;;;;;5040807;28;20315;-70
2023/09/24 00:43:38;;;;;;;;;;;11.90;85.40;;;;;;5059548;28;20015;-71
2023/09/24 00:46:14;;;;;;;;;;;11.90;85.40;;;;;;5060485;28;19935;-71
2023/09/24 00:48:40;;;;;;;;;;;11.90;85.50;;;;;;5060569;28;19936;-70
2023/09/24 00:51:15;;;;;;;;;;;11.90;85.80;;;;;;5057958;28;20407;-70
2023/09/24 00:53:49;;;;;;;;;;;11.90;85.40;;;;;;5059420;28;19979;-71
2023/09/24 00:56:24;;;;;;;;;;;11.90;85.40;;;;;;5059086;28;19929;-70
2023/09/24 00:58:57;;;;;;;;;;;11.90;85.00;;;;;;5042828;28;19990;-70
2023/09/24 01:01:32;;;;;;;;;;;11.90;85.10;;;;;;5059569;28;19947;-71
2023/09/24 01:04:07;;;;;;;;;;;11.80;85.40;;;;;;5043238;28;20007;-71
2023/09/24 01:06:41;;;;;;;;;;;11.70;85.50;;;;;;5059536;28;20013;-71
2023/09/24 01:09:20;;;;;;;;;;;11.70;85.60;;;;;;5062250;28;20015;-70
2023/09/24 01:11:53;;;;;;;;;;;11.80;85.60;;;;;;5041961;28;19974;-70
2023/09/24 01:14:27;;;;;;;;;;;11.80;85.60;;;;;;5062313;28;19932;-71
2023/09/24 01:17:02;;;;;;;;;;;11.80;85.40;;;;;;5042887;28;20003;-71
2023/09/24 01:19:36;;;;;;;;;;;11.70;85.50;;;;;;5057708;28;20303;-71
2023/09/24 01:22:11;;;;;;;;;;;11.70;85.70;;;;;;5061452;28;19932;-71
2023/09/24 01:24:44;;;;;;;;;;;11.70;85.40;;;;;;5060167;28;19932;-76
2023/09/24 01:27:18;;;;;;;;;;;11.80;85.40;;;;;;5047592;28;20364;-76
2023/09/24 01:29:52;;;;;;;;;;;11.70;85.40;;;;;;5060016;28;20008;-76
2023/09/24 01:32:27;;;;;;;;;;;11.80;85.30;;;;;;5065220;28;19928;-77
2023/09/24 01:35:03;;;;;;;;;;;11.70;85.40;;;;;;5062081;28;19929;-76
2023/09/24 01:37:38;;;;;;;;;;;11.70;85.40;;;;;;5043440;28;19930;-75
2023/09/24 01:40:20;;;;;;;;;;;11.80;85.40;;;;;;5040474;28;19959;-77
2023/09/24 01:42:57;;;;;;;;;;;11.70;85.20;;;;;;5053761;28;19974;-76
2023/09/24 01:45:33;;;;;;;;;;;11.70;85.10;;;;;;5059577;28;19934;-75
2023/09/24 01:48:07;;;;;;;;;;;11.70;85.10;;;;;;5053541;28;20383;-75
2023/09/24 01:50:41;;;;;;;;;;;11.70;85.30;;;;;;5060422;28;19925;-75
2023/09/24 01:53:16;;;;;;;;;;;11.70;85.20;;;;;;5064308;28;19928;-75
2023/09/24 01:55:50;;;;;;;;;;;11.70;85.30;;;;;;5064231;28;19928;-75
2023/09/24 01:58:23;;;;;;;;;;;11.60;85.40;;;;;;5045597;28;19935;-72
2023/09/24 02:00:56;;;;;;;;;;;11.60;85.50;;;;;;5063935;28;19936;-76
2023/09/24 02:03:29;;;;;;;;;;;11.60;85.30;;;;;;5063595;28;20015;-76
2023/09/24 02:06:03;;;;;;;;;;;11.70;85.40;;;;;;5065132;28;19924;-76
2023/09/24 02:08:39;;;;;;;;;;;11.70;85.50;;;;;;5044124;28;19933;-77
2023/09/24 02:11:14;;;;;;;;;;;11.70;85.40;;;;;;5064720;28;20013;-76
2023/09/24 02:13:48;;;;;;;;;;;11.70;85.10;;;;;;5063993;28;19931;-75
2023/09/24 02:16:22;;;;;;;;;;;11.70;85.30;;;;;;5063368;28;19925;-74
2023/09/24 02:18:56;;;;;;;;;;;11.60;85.40;;;;;;5062965;28;19932;-76
2023/09/24 02:21:31;;;;;;;;;;;11.60;85.70;;;;;;5063071;28;19925;-74
2023/09/24 02:24:07;;;;;;;;;;;11.50;85.80;;;;;;5061921;28;19964;-76
2023/09/24 02:26:41;;;;;;;;;;;11.40;85.90;;;;;;5059359;28;20055;-74
2023/09/24 02:29:16;;;;;;;;;;;11.40;85.70;;;;;;5046096;28;20015;-75
2023/09/24 02:31:52;;;;;;;;;;;11.40;85.60;;;;;;5045635;28;19968;-76
2023/09/24 02:34:25;;;;;;;;;;;11.40;85.50;;;;;;5063828;28;20404;-71
2023/09/24 02:36:58;;;;;;;;;;;11.50;85.30;;;;;;5063994;28;20053;-70
2023/09/24 02:39:33;;;;;;;;;;;11.40;85.30;;;;;;5055755;28;19940;-69
2023/09/24 02:42:07;;;;;;;;;;;11.50;85.10;;;;;;5058404;28;19933;-69
2023/09/24 02:44:40;;;;;;;;;;;11.60;85.10;;;;;;5045500;28;20039;-70
2023/09/24 02:47:13;;;;;;;;;;;11.50;85.20;;;;;;5056366;28;19924;-72
2023/09/24 02:49:47;;;;;;;;;;;11.50;85.30;;;;;;5062860;28;19925;-70
2023/09/24 02:52:21;;;;;;;;;;;11.40;85.40;;;;;;5062415;28;20266;-70
2023/09/24 02:54:55;;;;;;;;;;;11.40;85.50;;;;;;5057723;28;19935;-70
2023/09/24 02:57:29;;;;;;;;;;;11.40;85.40;;;;;;5058001;28;19933;-70
2023/09/24 03:00:02;;;;;;;;;;;11.40;85.40;;;;;;5062680;28;19925;-70
2023/09/24 03:02:37;;;;;;;;;;;11.50;85.10;;;;;;5042074;28;19933;-70
2023/09/24 03:05:13;;;;;;;;;;;11.40;85.30;;;;;;5042303;28;19931;-70
2023/09/24 03:07:48;;;;;;;;;;;11.50;85.20;;;;;;5043896;28;19936;-70
2023/09/24 03:10:24;;;;;;;;;;;11.50;85.10;;;;;;5059469;28;19964;-70
2023/09/24 03:12:51;;;;;;;;;;;11.40;85.20;;;;;;5056556;28;19936;-69
2023/09/24 03:15:25;;;;;;;;;;;11.40;85.20;;;;;;5061363;28;20023;-71
2023/09/24 03:17:59;;;;;;;;;;;11.40;84.80;;;;;;5061761;28;20383;-70
2023/09/24 03:20:28;;;;;;;;;;;11.20;85.10;;;;;;5059807;28;20505;-71
2023/09/24 03:23:03;;;;;;;;;;;11.20;85.20;;;;;;5049849;28;20027;-70
2023/09/24 03:25:39;;;;;;;;;;;11.10;85.20;;;;;;5062147;28;19925;-70
2023/09/24 03:28:13;;;;;;;;;;;11.10;85.30;;;;;;5062219;28;19925;-70
2023/09/24 03:30:46;;;;;;;;;;;11.20;85.30;;;;;;5042305;28;19925;-70
2023/09/24 03:33:19;;;;;;;;;;;11.20;85.20;;;;;;5058906;28;19968;-70
2023/09/24 03:35:52;;;;;;;;;;;11.10;85.20;;;;;;5062296;28;19925;-69
2023/09/24 03:38:25;;;;;;;;;;;11.10;85.10;;;;;;5061388;28;19935;-69
2023/09/24 03:40:59;;;;;;;;;;;11.10;85.10;;;;;;5044968;28;19959;-70
2023/09/24 03:43:33;;;;;;;;;;;11.10;85.30;;;;;;5059811;28;20252;-67
2023/09/24 03:46:06;;;;;;;;;;;11.10;85.40;;;;;;5050519;28;20281;-67
2023/09/24 03:48:32;;;;;;;;;;;11.10;85.40;;;;;;5041586;28;19940;-67
2023/09/24 03:51:06;;;;;;;;;;;11.20;85.30;;;;;;5043920;28;19929;-67
2023/09/24 03:53:39;;;;;;;;;;;11.30;85.30;;;;;;5061100;28;19939;-66
2023/09/24 03:56:14;;;;;;;;;;;11.20;85.30;;;;;;5060846;28;19929;-67
2023/09/24 03:58:47;;;;;;;;;;;11.30;85.30;;;;;;5056068;28;20014;-66
2023/09/24 04:01:22;;;;;;;;;;;11.20;85.40;;;;;;5040878;28;19941;-65
2023/09/24 04:03:56;;;;;;;;;;;11.20;85.30;;;;;;5060956;28;19931;-67
2023/09/24 04:06:29;;;;;;;;;;;11.10;85.10;;;;;;5064146;28;19933;-65
2023/09/24 04:09:02;;;;;;;;;;;11.10;85.10;;;;;;5061865;28;20375;-67
2023/09/24 04:11:43;;;;;;;;;;;11.10;85.30;;;;;;5061170;28;19935;-67
2023/09/24 04:14:17;;;;;;;;;;;11.20;85.20;;;;;;5062292;28;19929;-66
2023/09/24 04:16:50;;;;;;;;;;;11.20;84.80;;;;;;5060984;28;19932;-67
2023/09/24 04:19:23;;;;;;;;;;;11.20;84.60;;;;;;5060656;28;19924;-67
2023/09/24 04:21:57;;;;;;;;;;;11.10;84.40;;;;;;5063684;28;19928;-66
2023/09/24 04:24:30;;;;;;;;;;;11.00;84.70;;;;;;5059948;28;19993;-68
2023/09/24 04:27:04;;;;;;;;;;;10.90;84.70;;;;;;5060152;28;19933;-67
2023/09/24 04:29:38;;;;;;;;;;;10.80;84.70;;;;;;5060216;28;19932;-67
2023/09/24 04:32:11;;;;;;;;;;;10.80;84.80;;;;;;5058465;28;19924;-67
2023/09/24 04:34:46;;;;;;;;;;;10.80;84.90;;;;;;5060887;28;19936;-66
2023/09/24 04:37:20;;;;;;;;;;;10.80;84.90;;;;;;5060131;28;19929;-66
2023/09/24 04:39:53;;;;;;;;;;;10.80;85.00;;;;;;5045819;28;20057;-68
2023/09/24 04:42:27;;;;;;;;;;;10.90;84.90;;;;;;5056938;28;19948;-67
2023/09/24 04:45:01;;;;;;;;;;;10.80;85.10;;;;;;5062559;28;20390;-67
2023/09/24 04:47:34;;;;;;;;;;;10.90;84.90;;;;;;5058301;28;19924;-66
2023/09/24 04:50:07;;;;;;;;;;;10.90;85.10;;;;;;5060482;28;19932;-67
2023/09/24 04:52:41;;;;;;;;;;;10.80;85.00;;;;;;5060292;28;19924;-67
2023/09/24 04:55:15;;;;;;;;;;;10.80;85.20;;;;;;5061857;28;19972;-72
2023/09/24 04:57:49;;;;;;;;;;;10.70;84.80;;;;;;5060347;28;20019;-71
2023/09/24 05:00:23;;;;;;;;;;;10.70;84.90;;;;;;5060440;28;19932;-71
2023/09/24 05:02:56;;;;;;;;;;;10.70;85.00;;;;;;5060973;28;20346;-71
2023/09/24 05:05:29;;;;;;;;;;;10.70;85.10;;;;;;5059947;28;19924;-71
2023/09/24 05:08:02;;;;;;;;;;;10.70;85.00;;;;;;5061300;28;19947;-71
2023/09/24 05:10:37;;;;;;;;;;;10.70;84.80;;;;;;5060554;28;19932;-71
2023/09/24 05:13:12;;;;;;;;;;;10.70;84.70;;;;;;5060351;28;20329;-72
2023/09/24 05:15:49;;;;;;;;;;;10.60;85.00;;;;;;5060352;28;19924;-71
2023/09/24 05:18:23;;;;;;;;;;;10.60;85.00;;;;;;5056996;28;20002;-71
2023/09/24 05:20:56;;;;;;;;;;;10.60;85.00;;;;;;5060893;28;19954;-72
2023/09/24 05:23:29;;;;;;;;;;;10.70;85.00;;;;;;5059771;28;20359;-72
2023/09/24 05:26:02;;;;;;;;;;;10.70;84.80;;;;;;5062719;28;19925;-72
2023/09/24 05:28:36;;;;;;;;;;;10.70;84.60;;;;;;5064468;28;19979;-71
2023/09/24 05:31:10;;;;;;;;;;;10.70;84.80;;;;;;5059815;28;19940;-71
2023/09/24 05:33:44;;;;;;;;;;;10.70;84.90;;;;;;5064844;28;19933;-70
2023/09/24 05:36:18;;;;;;;;;;;10.70;84.90;;;;;;5062645;28;19925;-71
2023/09/24 05:38:51;;;;;;;;;;;10.70;84.70;;;;;;5063740;28;19967;-71
2023/09/24 05:41:24;;;;;;;;;;;10.60;85.00;;;;;;5063646;28;19924;-70
2023/09/24 05:44:01;;;;;;;;;;;10.60;84.90;;;;;;5064205;28;19957;-70
2023/09/24 05:46:34;;;;;;;;;;;10.60;85.10;;;;;;5061810;28;19977;-71
2023/09/24 05:49:07;;;;;;;;;;;10.60;85.00;;;;;;5062212;28;19928;-71
2023/09/24 05:51:40;;;;;;;;;;;10.60;84.70;;;;;;5046035;28;19939;-72
2023/09/24 05:54:13;;;;;;;;;;;10.70;84.60;;;;;;5046303;28;19943;-72
2023/09/24 05:56:46;;;;;;;;;;;10.70;84.70;;;;;;5063390;28;20011;-71
2023/09/24 05:59:20;;;;;;;;;;;10.80;84.50;;;;;;5063560;28;19929;-71
2023/09/24 06:01:54;;;;;;;;;;;10.70;84.50;;;;;;5061706;28;19939;-71
2023/09/24 06:04:20;;;;;;;;;;;10.70;84.60;;;;;;5062347;28;20001;-73
2023/09/24 06:06:54;;;;;;;;;;;10.70;84.50;;;;;;5061915;28;20000;-72
2023/09/24 06:09:28;;;;;;;;;;;10.70;84.50;;;;;;5062628;28;20028;-73
2023/09/24 06:12:02;;;;;;;;;;;10.70;84.70;;;;;;5063289;28;19924;-73
2023/09/24 06:14:43;;;;;;;;;;;10.70;84.60;;;;;;5063744;28;19924;-72
2023/09/24 06:17:17;;;;;;;;;;;10.80;84.50;;;;;;5060167;28;19932;-73
2023/09/24 06:19:50;;;;;;;;;;;10.70;84.40;;;;;;5056963;28;19940;-73
2023/09/24 06:22:23;;;;;;;;;;;10.90;84.10;;;;;;5064052;28;20031;-70
2023/09/24 06:24:56;;;;;;;;;;;10.80;84.30;;;;;;5060720;28;19924;-72
2023/09/24 06:27:29;;;;;;;;;;;10.90;84.10;;;;;;5061946;28;20395;-72
2023/09/24 06:30:04;;;;;;;;;;;10.80;84.30;;;;;;5064219;28;19924;-73
2023/09/24 06:32:38;;;;;;;;;;;10.90;84.20;;;;;;5062812;28;20015;-73
2023/09/24 06:35:11;;;;;;;;;;;10.90;84.10;;;;;;5062113;28;19932;-73
2023/09/24 06:37:44;;;;;;;;;;;11.00;83.90;;;;;;5061589;28;20029;-73
2023/09/24 06:40:17;;;;;;;;;;;11.00;83.70;;;;;;5058239;28;19924;-73
2023/09/24 06:42:50;;;;;;;;;;;11.00;83.50;;;;;;5063056;28;19980;-75
2023/09/24 06:45:24;;;;;;;;;;;10.90;83.50;;;;;;5065921;28;19925;-72
2023/09/24 06:47:59;;;;;;;;;;;10.80;83.70;;;;;;5061387;28;19956;-73
2023/09/24 06:50:32;;;;;;;;;;;10.80;83.80;;;;;;5063909;28;19990;-74
2023/09/24 06:53:06;;;;;;;;;;;10.90;83.70;;;;;;5062742;28;19924;-74
2023/09/24 06:55:40;;;;;;;;;;;11.00;83.60;;;;;;5060458;28;19978;-74
2023/09/24 06:58:13;;;;;;;;;;;11.10;83.20;;;;;;5058898;28;20002;-73
2023/09/24 07:00:47;;;;;;;;;;;11.10;83.40;;;;;;5061646;28;19946;-74
2023/09/24 07:03:21;;;;;;;;;;;11.10;83.50;;;;;;5063914;28;19986;-73
2023/09/24 07:05:54;;;;;;;;;;;11.10;83.70;;;;;;5062482;28;19931;-73
2023/09/24 07:08:28;;;;;;;;;;;11.20;83.60;;;;;;5058719;28;19933;-74
2023/09/24 07:11:21;;;;;;;;;;;11.30;83.10;;;;;;5062244;28;19932;-74
2023/09/24 07:13:54;;;;;;;;;;;11.40;83.20;;;;;;5061949;28;19935;-73
2023/09/24 07:16:29;;;;;;;;;;;11.30;82.90;;;;;;5061300;28;19935;-73
2023/09/24 07:18:57;;;;;;;;;;;11.20;82.90;;;;;;5062725;28;19936;-72
2023/09/24 07:21:31;;;;;;;;;;;11.30;83.10;;;;;;5043485;28;19979;-71
2023/09/24 07:24:06;;;;;;;;;;;11.40;83.30;;;;;;5061032;28;19929;-73
2023/09/24 07:26:39;;;;;;;;;;;11.50;83.10;;;;;;5062070;28;19928;-73
2023/09/24 07:29:12;;;;;;;;;;;11.60;83.00;;;;;;5060248;28;20439;-72
2023/09/24 07:31:41;;;;;;;;;;;11.40;82.70;;;;;;5061829;28;19955;-72
2023/09/24 07:34:24;;;;;;;;;;;11.50;82.90;;;;;;5063019;28;20417;-73
2023/09/24 07:36:58;;;;;;;;;;;11.50;83.00;;;;;;5060765;28;19932;-73
2023/09/24 07:39:31;;;;;;;;;;;11.60;82.90;;;;;;5058250;28;19928;-72
2023/09/24 07:42:04;;;;;;;;;;;11.70;82.80;;;;;;5061865;28;19924;-73
2023/09/24 07:44:37;;;;;;;;;;;11.70;82.70;;;;;;5060429;28;20299;-72
2023/09/24 07:47:11;;;;;;;;;;;11.70;82.70;;;;;;5060031;28;19928;-73
2023/09/24 07:49:45;;;;;;;;;;;11.70;82.60;;;;;;5057642;28;19981;-73
2023/09/24 07:52:18;;;;;;;;;;;11.80;82.60;;;;;;5062452;28;19931;-74
2023/09/24 07:54:51;;;;;;;;;;;11.80;82.60;;;;;;5061437;28;19929;-73
2023/09/24 07:57:24;;;;;;;;;;;11.80;82.70;;;;;;5058009;28;19948;-72
2023/09/24 07:59:57;;;;;;;;;;;11.80;82.90;;;;;;5061077;28;19967;-72
2023/09/24 08:02:40;;;;;;;;;;;11.90;83.00;;;;;;5058794;28;19928;-64
2023/09/24 08:05:13;;;;;;;;;;;12.00;83.10;;;;;;5059840;28;19963;-64
2023/09/24 08:07:47;;;;;;;;;;;12.00;82.40;;;;;;5056702;28;20035;-63
2023/09/24 08:10:20;;;;;;;;;;;12.10;82.50;;;;;;5061622;28;19928;-66
2023/09/24 08:12:55;;;;;;;;;;;12.20;82.70;;;;;;5060272;28;20015;-64
2023/09/24 08:15:28;;;;;;;;;;;12.40;82.40;;;;;;5059149;28;19954;-64
2023/09/24 08:18:08;;;;;;;;;;;12.50;82.40;;;;;;5060377;28;19999;-65
2023/09/24 08:20:42;;;;;;;;;;;12.70;81.90;;;;;;5060220;28;20024;-65
2023/09/24 08:23:15;;;;;;;;;;;12.80;81.90;;;;;;5059786;28;19928;-65
2023/09/24 08:25:49;;;;;;;;;;;13.00;81.40;;;;;;5060509;28;19929;-65
2023/09/24 08:28:22;;;;;;;;;;;13.10;81.30;;;;;;5059673;28;19939;-64
2023/09/24 08:30:55;;;;;;;;;;;13.20;81.80;;;;;;5061690;28;19924;-65
2023/09/24 08:33:29;;;;;;;;;;;13.20;81.00;;;;;;5057057;28;20302;-66
2023/09/24 08:36:07;;;;;;;;;;;13.40;81.20;;;;;;5060937;28;19924;-66
2023/09/24 08:38:41;;;;;;;;;;;13.60;81.10;;;;;;5058279;28;19935;-64
2023/09/24 08:41:14;;;;;;;;;;;13.70;80.80;;;;;;5058655;28;19935;-65
2023/09/24 08:43:47;;;;;;;;;;;13.90;80.50;;;;;;5061044;28;19928;-66
2023/09/24 08:46:20;;;;;;;;;;;14.10;80.20;;;;;;5061600;28;20029;-66
2023/09/24 08:48:55;;;;;;;;;;;14.20;79.80;;;;;;5058308;28;19935;-66
2023/09/24 08:51:28;;;;;;;;;;;14.30;79.80;;;;;;5060181;28;19951;-65
2023/09/24 08:54:01;;;;;;;;;;;14.40;79.30;;;;;;5059947;28;20380;-66
2023/09/24 08:56:35;;;;;;;;;;;14.60;78.90;;;;;;5062116;28;19942;-65
2023/09/24 08:59:02;;;;;;;;;;;14.70;78.50;;;;;;5058528;28;19937;-64
2023/09/24 09:01:36;;;;;;;;;;;14.80;78.20;;;;;;5060597;28;20020;-63
2023/09/24 09:04:10;;;;;;;;;;;15.00;77.40;;;;;;5060509;28;19931;-65
2023/09/24 09:06:37;;;;;;;;;;;15.10;77.20;;;;;;5060779;28;19924;-63
2023/09/24 09:09:11;;;;;;;;;;;15.20;77.20;;;;;;5059298;28;20056;-64
2023/09/24 09:11:45;;;;;;;;;;;15.10;76.50;;;;;;5059028;28;19966;-65
2023/09/24 09:14:32;;;;;;;;;;;15.30;76.60;;;;;;5061061;28;19931;-65
2023/09/24 09:17:05;;;;;;;;;;;15.40;76.10;;;;;;5040786;28;20457;-64
2023/09/24 09:19:51;;;;;;;;;;;15.60;75.60;;;;;;5061065;28;19943;-64
2023/09/24 09:22:35;;;;;;;;;;;15.60;75.40;;;;;;5061437;28;19954;-66
2023/09/24 09:25:09;;;;;;;;;;;15.80;75.00;;;;;;5061078;28;20034;-65
2023/09/24 09:27:43;;;;;;;;;;;16.00;74.30;;;;;;5059435;28;19998;-68
2023/09/24 09:30:17;;;;;;;;;;;16.20;74.20;;;;;;5061366;28;19939;-65
2023/09/24 09:32:51;;;;;;;;;;;16.10;73.50;;;;;;5058627;28;20375;-65
2023/09/24 09:35:31;;;;;;;;;;;16.10;74.00;;;;;;5058568;28;19943;-64
2023/09/24 09:38:12;;;;;;;;;;;16.30;74.10;;;;;;5060260;28;19924;-66
2023/09/24 09:40:45;;;;;;;;;;;16.50;73.30;;;;;;5058628;28;19929;-64
2023/09/24 09:43:21;;;;;;;;;;;16.70;73.10;;;;;;5058728;28;19956;-65
2023/09/24 09:45:55;;;;;;;;;;;16.90;72.90;;;;;;5058699;28;19943;-63
2023/09/24 09:48:30;;;;;;;;;;;17.00;73.10;;;;;;5058381;28;19983;-64
2023/09/24 09:51:07;;;;;;;;;;;17.10;72.40;;;;;;5058302;28;20379;-65
2023/09/24 09:53:40;;;;;;;;;;;17.20;72.40;;;;;;5056999;28;20035;-65
2023/09/24 09:56:15;;;;;;;;;;;17.30;72.50;;;;;;5059941;28;19985;-65
2023/09/24 09:58:55;;;;;;;;;;;17.40;72.20;;;;;;5058965;28;19929;-65
2023/09/24 10:01:28;;;;;;;;;;;17.60;72.20;;;;;;5057939;28;20053;-65
2023/09/24 10:04:02;;;;;;;;;;;17.70;72.20;;;;;;5057510;28;20003;-65
2023/09/24 10:06:39;;;;;;;;;;;17.80;71.80;;;;;;5056563;28;19932;-65
2023/09/24 10:09:31;;;;;;;;;;;17.90;71.50;;;;;;5059437;28;19929;-64
2023/09/24 10:12:07;;;;;;;;;;;18.00;71.60;;;;;;5061815;28;19948;-65
2023/09/24 10:14:42;;;;;;;;;;;18.10;71.10;;;;;;5060689;28;19935;-65
2023/09/24 10:17:23;;;;;;;;;;;18.20;70.90;;;;;;5064085;28;20295;-65
2023/09/24 10:19:58;;;;;;;;;;;18.30;70.60;;;;;;5063432;28;19925;-65
2023/09/24 10:22:34;;;;;;;;;;;18.40;70.20;;;;;;5060970;28;19925;-66
2023/09/24 10:25:23;;;;;;;;;;;18.40;69.50;;;;;;5061687;28;19924;-64
2023/09/24 10:28:04;;;;;;;;;;;18.50;68.60;;;;;;5061693;28;20383;-65
2023/09/24 10:30:59;;;;;;;;;;;18.60;68.00;;;;;;5062039;28;20364;-65
2023/09/24 10:33:50;;;;;;;;;;;18.60;67.40;;;;;;5063038;28;19955;-71
2023/09/24 10:36:29;;;;;;;;;;;18.80;66.10;;;;;;5060870;28;20330;-71
2023/09/24 10:39:04;;;;;;;;;;;18.90;65.10;;;;;;5062619;28;19974;-71
2023/09/24 10:41:58;;;;;;;;;;;18.90;65.50;;;;;;5060831;28;19924;-72
2023/09/24 10:44:33;;;;;;;;;;;19.00;65.50;;;;;;5043989;28;19948;-71
2023/09/24 10:47:21;;;;;;;;;;;19.00;65.00;;;;;;5063694;28;19979;-70
2023/09/24 10:50:01;;;;;;;;;;;19.10;65.20;;;;;;5063013;28;19929;-71
2023/09/24 10:52:46;;;;;;;;;;;19.20;64.90;;;;;;5061986;28;19986;-70
2023/09/24 10:55:33;;;;;;;;;;;19.20;64.50;;;;;;5058199;28;19925;-70
2023/09/24 10:58:12;;;;;;;;;;;19.30;64.70;;;;;;5061437;28;19929;-70
2023/09/24 11:00:52;;;;;;;;;;;19.30;64.50;;;;;;5062704;28;19932;-69
2023/09/24 11:03:34;;;;;;;;;;;19.40;63.60;;;;;;5063165;28;19935;-70
2023/09/24 11:06:08;;;;;;;;;;;19.40;63.00;;;;;;5062489;28;20048;-70
2023/09/24 11:08:42;;;;;;;;;;;19.50;62.90;;;;;;5060289;28;19948;-71
2023/09/24 11:11:16;;;;;;;;;;;19.40;63.10;;;;;;5062866;28;19933;-70
2023/09/24 11:13:50;;;;;;;;;;;19.50;62.20;;;;;;5061194;28;19928;-70
2023/09/24 11:16:23;;;;;;;;;;;19.50;62.00;;;;;;5062657;28;19972;-69
2023/09/24 11:18:56;;;;;;;;;;;19.60;62.20;;;;;;5061732;28;19931;-70
2023/09/24 11:21:31;;;;;;;;;;;19.60;62.50;;;;;;5060651;28;19924;-71
2023/09/24 11:24:17;;;;;;;;;;;19.70;62.60;;;;;;5060905;28;19982;-71
2023/09/24 11:26:52;;;;;;;;;;;19.70;61.80;;;;;;5060781;28;19978;-71
2023/09/24 11:29:25;;;;;;;;;;;19.70;62.70;;;;;;5063327;28;19925;-69
2023/09/24 11:31:58;;;;;;;;;;;19.70;62.40;;;;;;5063392;28;19925;-72
2023/09/24 11:34:32;;;;;;;;;;;19.80;61.90;;;;;;5060006;28;19931;-71
2023/09/24 11:37:06;;;;;;;;;;;19.80;61.70;;;;;;5059750;28;19942;-71
2023/09/24 11:39:43;;;;;;;;;;;19.80;62.30;;;;;;5061656;28;19951;-71
2023/09/24 11:42:19;;;;;;;;;;;19.80;62.70;;;;;;5059440;28;19935;-71
2023/09/24 11:44:52;;;;;;;;;;;19.80;62.30;;;;;;5060481;28;20394;-71
2023/09/24 11:47:25;;;;;;;;;;;19.70;62.10;;;;;;5060677;28;20394;-71
2023/09/24 11:49:58;;;;;;;;;;;19.70;62.40;;;;;;5062418;28;19929;-70
2023/09/24 11:52:32;;;;;;;;;;;19.70;63.00;;;;;;5059559;28;19932;-70
2023/09/24 11:55:05;;;;;;;;;;;19.70;63.40;;;;;;5063765;28;19972;-70
2023/09/24 11:57:40;;;;;;;;;;;19.70;62.90;;;;;;5061812;28;20364;-70
2023/09/24 12:00:15;;;;;;;;;;;19.70;63.00;;;;;;5066829;28;19929;-71
2023/09/24 12:02:48;;;;;;;;;;;19.70;62.80;;;;;;5061764;28;19933;-71
2023/09/24 12:05:15;;;;;;;;;;;19.80;62.90;;;;;;5061013;28;20020;-71
2023/09/24 12:07:48;;;;;;;;;;;19.80;63.10;;;;;;5057389;28;19978;-71
2023/09/24 12:10:22;;;;;;;;;;;19.80;63.10;;;;;;5060864;28;19981;-71
2023/09/24 12:13:01;;;;;;;;;;;19.80;63.70;;;;;;5059108;28;19929;-70
2023/09/24 12:15:34;;;;;;;;;;;19.90;63.30;;;;;;5058971;28;19955;-70
2023/09/24 12:18:08;;;;;;;;;;;19.90;63.20;;;;;;5059371;28;19928;-71
2023/09/24 12:20:42;;;;;;;;;;;20.00;63.30;;;;;;5059554;28;19985;-71
2023/09/24 12:23:15;;;;;;;;;;;20.00;63.30;;;;;;5059725;28;20012;-71
2023/09/24 12:25:48;;;;;;;;;;;20.00;63.10;;;;;;5059772;28;19986;-70
2023/09/24 12:28:22;;;;;;;;;;;20.00;62.90;;;;;;5059995;28;19978;-70
2023/09/24 12:30:56;;;;;;;;;;;20.10;63.00;;;;;;5060001;28;19967;-70
2023/09/24 12:33:29;;;;;;;;;;;20.00;63.40;;;;;;5057832;28;19939;-70
2023/09/24 12:36:02;;;;;;;;;;;20.00;62.90;;;;;;5059407;28;19924;-70
2023/09/24 12:38:35;;;;;;;;;;;20.00;63.10;;;;;;5059835;28;19939;-71
2023/09/24 12:41:10;;;;;;;;;;;20.00;62.40;;;;;;5059841;28;19982;-72
2023/09/24 12:43:45;;;;;;;;;;;20.00;62.30;;;;;;5060031;28;20007;-69
2023/09/24 12:46:18;;;;;;;;;;;19.90;62.50;;;;;;5059958;28;19945;-70
2023/09/24 12:48:51;;;;;;;;;;;19.90;61.90;;;;;;5059434;28;20016;-72
2023/09/24 12:51:24;;;;;;;;;;;19.80;61.80;;;;;;5060654;28;19929;-70
2023/09/24 12:53:57;;;;;;;;;;;19.70;61.70;;;;;;5058970;28;19932;-68
2023/09/24 12:56:30;;;;;;;;;;;19.70;62.30;;;;;;5059988;28;19978;-68
2023/09/24 12:59:04;;;;;;;;;;;19.60;62.40;;;;;;5060767;28;19931;-67
2023/09/24 13:01:38;;;;;;;;;;;19.60;62.00;;;;;;5058514;28;19929;-67
2023/09/24 13:04:05;;;;;;;;;;;19.60;62.80;;;;;;5056440;28;19932;-68
2023/09/24 13:06:38;;;;;;;;;;;19.60;61.90;;;;;;5060215;28;19928;-68
2023/09/24 13:09:16;;;;;;;;;;;19.60;62.30;;;;;;5060975;28;19925;-68
2023/09/24 13:11:49;;;;;;;;;;;19.60;63.00;;;;;;5059499;28;20323;-68
2023/09/24 13:14:24;;;;;;;;;;;19.70;64.00;;;;;;5059655;28;20011;-67
2023/09/24 13:16:57;;;;;;;;;;;19.70;63.80;;;;;;5058127;28;19924;-68
2023/09/24 13:19:30;;;;;;;;;;;19.60;64.00;;;;;;5058833;28;19950;-68
2023/09/24 13:22:03;;;;;;;;;;;19.60;64.50;;;;;;5059475;28;20036;-68
2023/09/24 13:24:39;;;;;;;;;;;19.60;64.30;;;;;;5060183;28;19954;-67
2023/09/24 13:27:12;;;;;;;;;;;19.50;63.70;;;;;;5061455;28;20027;-67
2023/09/24 13:29:46;;;;;;;;;;;19.50;63.60;;;;;;5057843;28;19982;-68
2023/09/24 13:32:21;;;;;;;;;;;19.40;63.30;;;;;;5061115;28;19928;-68
2023/09/24 13:34:54;;;;;;;;;;;19.40;63.30;;;;;;5058160;28;19929;-68
2023/09/24 13:37:27;;;;;;;;;;;19.30;63.30;;;;;;5061469;28;19990;-67
2023/09/24 13:40:01;;;;;;;;;;;19.30;63.90;;;;;;5059291;28;19985;-68
2023/09/24 13:42:34;;;;;;;;;;;19.30;63.50;;;;;;5060027;28;19936;-67
2023/09/24 13:45:09;;;;;;;;;;;19.30;63.20;;;;;;5059009;28;19933;-67
2023/09/24 13:47:36;;;;;;;;;;;19.30;62.90;;;;;;5063068;28;20265;-69
2023/09/24 13:50:09;;;;;;;;;;;19.30;63.30;;;;;;5062401;28;20372;-68
2023/09/24 13:52:44;;;;;;;;;;;19.30;63.00;;;;;;5063407;28;20517;-68
2023/09/24 13:55:17;;;;;;;;;;;19.20;63.40;;;;;;5063672;28;19929;-68
2023/09/24 13:57:50;;;;;;;;;;;19.20;63.00;;;;;;5062610;28;20409;-68
2023/09/24 14:00:24;;;;;;;;;;;19.20;63.70;;;;;;5064065;28;20384;-69
2023/09/24 14:02:58;;;;;;;;;;;19.20;63.30;;;;;;5063633;28;19935;-67
2023/09/24 14:05:31;;;;;;;;;;;19.10;62.30;;;;;;5062149;28;20435;-75
2023/09/24 14:13:42;;;;;;;;;;;19.10;61.30;;;;;;5062990;28;19924;-74
2023/09/24 14:16:16;;;;;;;;;;;19.10;61.40;;;;;;5062782;28;20022;-76
2023/09/24 14:18:50;;;;;;;;;;;19.10;62.40;;;;;;5063623;28;19928;-75
2023/09/24 14:21:23;;;;;;;;;;;19.00;61.30;;;;;;5061421;28;19928;-73
2023/09/24 14:23:56;;;;;;;;;;;19.00;62.80;;;;;;5059239;28;20406;-75
2023/09/24 14:26:29;;;;;;;;;;;19.00;62.40;;;;;;5063360;28;19975;-75
2023/09/24 14:29:02;;;;;;;;;;;19.00;62.80;;;;;;5062441;28;19928;-75
2023/09/24 14:31:37;;;;;;;;;;;19.00;64.10;;;;;;5065659;28;20371;-75
2023/09/24 14:34:11;;;;;;;;;;;18.90;61.80;;;;;;5065290;28;19929;-74
2023/09/24 14:36:44;;;;;;;;;;;18.90;61.80;;;;;;5068129;28;20055;-75
2023/09/24 14:39:17;;;;;;;;;;;18.90;62.50;;;;;;5061392;28;19933;-74
2023/09/24 14:41:50;;;;;;;;;;;18.90;63.20;;;;;;5062706;28;20367;-78
2023/09/24 14:44:24;;;;;;;;;;;18.90;63.10;;;;;;5061502;28;19937;-75
2023/09/24 14:46:58;;;;;;;;;;;18.80;62.50;;;;;;5062971;28;20338;-78
2023/09/24 14:49:32;;;;;;;;;;;18.80;63.20;;;;;;5062502;28;20024;-75
2023/09/24 14:52:05;;;;;;;;;;;18.70;63.00;;;;;;5061502;28;19933;-76
2023/09/24 14:54:38;;;;;;;;;;;18.70;63.10;;;;;;5061690;28;21190;-75
2023/09/24 14:57:05;;;;;;;;;;;18.70;62.50;;;;;;5065144;28;20408;-74
2023/09/24 14:59:38;;;;;;;;;;;18.60;62.70;;;;;;5062237;28;19928;-74
2023/09/24 15:02:14;;;;;;;;;;;18.60;62.70;;;;;;5061200;28;19964;-75
2023/09/24 15:04:47;;;;;;;;;;;18.60;62.40;;;;;;5060247;28;19939;-76